sensor_id;sensor_type;location;lat;lon;timestamp;P1;durP1;ratioP1;P2;durP2;ratioP2
49310;SDS011;35177;45.900;5.946;2022-09-03T00:01:19;13.50;;;6.90;;
49310;SDS011;35177;45.900;5.946;2022-09-03T00:03:56;13.15;;;6.40;;
49310;SDS011;35177;45.900;5.946;2022-09-03T00:06:42;10.27;;;6.85;;
49310;SDS011;35177;45.900;5.946;2022-09-03T00:09:13;33.58;;;7.43;;
49310;SDS011;35177;45.900;5.946;2022-09-03T00:12:07;26.33;;;8.05;;
49310;SDS011;35177;45.900;5.946;2022-09-03T06:00:19;12.80;;;8.70;;
49310;SDS011;35177;45.900;5.946;2022-09-03T06:02:55;9.02;;;8.10;;
49310;SDS011;35177;45.900;5.946;2022-09-03T06:05:22;17.45;;;9.27;;
49310;SDS011;35177;45.900;5.946;2022-09-03T06:07:47;14.05;;;8.40;;
49310;SDS011;35177;45.900;5.946;2022-09-03T06:10:14;17.33;;;9.43;;
49310;SDS011;35177;45.900;5.946;2022-09-03T06:12:40;15.93;;;10.10;;
49310;SDS011;35177;45.900;5.946;2022-09-03T06:15:07;16.77;;;9.82;;
49310;SDS011;35177;45.900;5.946;2022-09-03T06:17:33;14.50;;;11.02;;
49310;SDS011;35177;45.900;5.946;2022-09-03T06:19:58;13.05;;;10.50;;
49310;SDS011;35177;45.900;5.946;2022-09-03T06:22:24;11.35;;;10.10;;
49310;SDS011;35177;45.900;5.946;2022-09-03T06:24:52;15.65;;;10.18;;
49310;SDS011;35177;45.900;5.946;2022-09-03T06:27:18;15.77;;;10.13;;
49310;SDS011;35177;45.900;5.946;2022-09-03T06:29:45;15.95;;;9.90;;
49310;SDS011;35177;45.900;5.946;2022-09-03T06:32:10;11.50;;;9.85;;
49310;SDS011;35177;45.900;5.946;2022-09-03T06:34:36;12.00;;;8.77;;
49310;SDS011;35177;45.900;5.946;2022-09-03T06:37:01;12.00;;;9.20;;
49310;SDS011;35177;45.900;5.946;2022-09-03T06:39:27;11.48;;;8.68;;
49310;SDS011;35177;45.900;5.946;2022-09-03T06:41:52;10.52;;;8.50;;
49310;SDS011;35177;45.900;5.946;2022-09-03T06:44:19;11.45;;;8.02;;
49310;SDS011;35177;45.900;5.946;2022-09-03T06:46:44;11.35;;;8.30;;
49310;SDS011;35177;45.900;5.946;2022-09-03T06:49:11;8.00;;;7.18;;
49310;SDS011;35177;45.900;5.946;2022-09-03T06:51:37;9.77;;;7.53;;
49310;SDS011;35177;45.900;5.946;2022-09-03T06:54:04;10.38;;;6.90;;
49310;SDS011;35177;45.900;5.946;2022-09-03T06:56:31;9.98;;;6.82;;
49310;SDS011;35177;45.900;5.946;2022-09-03T06:58:58;7.05;;;6.35;;
49310;SDS011;35177;45.900;5.946;2022-09-03T07:01:29;11.65;;;6.45;;
49310;SDS011;35177;45.900;5.946;2022-09-03T07:03:56;6.75;;;5.40;;
49310;SDS011;35177;45.900;5.946;2022-09-03T07:06:25;10.27;;;5.88;;
49310;SDS011;35177;45.900;5.946;2022-09-03T07:08:53;7.20;;;4.95;;
49310;SDS011;35177;45.900;5.946;2022-09-03T07:11:25;5.68;;;5.10;;
49310;SDS011;35177;45.900;5.946;2022-09-03T07:13:53;6.32;;;5.55;;
49310;SDS011;35177;45.900;5.946;2022-09-03T07:16:21;5.03;;;4.20;;
49310;SDS011;35177;45.900;5.946;2022-09-03T07:18:48;6.47;;;4.35;;
49310;SDS011;35177;45.900;5.946;2022-09-03T07:21:18;10.15;;;4.90;;
49310;SDS011;35177;45.900;5.946;2022-09-03T07:23:46;11.23;;;5.13;;
49310;SDS011;35177;45.900;5.946;2022-09-03T07:26:13;5.63;;;4.38;;
49310;SDS011;35177;45.900;5.946;2022-09-03T07:28:42;4.45;;;4.05;;
49310;SDS011;35177;45.900;5.946;2022-09-03T07:31:16;4.88;;;4.07;;
49310;SDS011;35177;45.900;5.946;2022-09-03T07:33:44;5.22;;;4.22;;
49310;SDS011;35177;45.900;5.946;2022-09-03T07:36:12;4.97;;;4.43;;
49310;SDS011;35177;45.900;5.946;2022-09-03T07:38:41;6.93;;;4.72;;
49310;SDS011;35177;45.900;5.946;2022-09-03T07:41:11;8.10;;;4.38;;
49310;SDS011;35177;45.900;5.946;2022-09-03T07:43:38;5.30;;;4.70;;
49310;SDS011;35177;45.900;5.946;2022-09-03T07:46:07;6.32;;;4.50;;
49310;SDS011;35177;45.900;5.946;2022-09-03T07:48:37;7.55;;;4.40;;
49310;SDS011;35177;45.900;5.946;2022-09-03T07:51:04;13.18;;;4.80;;
49310;SDS011;35177;45.900;5.946;2022-09-03T07:53:31;6.25;;;4.32;;
49310;SDS011;35177;45.900;5.946;2022-09-03T07:56:00;5.93;;;3.95;;
49310;SDS011;35177;45.900;5.946;2022-09-03T07:58:29;5.32;;;4.28;;
49310;SDS011;35177;45.900;5.946;2022-09-03T08:00:56;5.40;;;3.67;;
49310;SDS011;35177;45.900;5.946;2022-09-03T08:03:23;3.30;;;3.00;;
49310;SDS011;35177;45.900;5.946;2022-09-03T08:05:49;5.65;;;2.80;;
49310;SDS011;35177;45.900;5.946;2022-09-03T08:08:14;2.78;;;2.25;;
49310;SDS011;35177;45.900;5.946;2022-09-03T08:10:41;4.68;;;2.90;;
49310;SDS011;35177;45.900;5.946;2022-09-03T08:13:07;6.43;;;3.20;;
49310;SDS011;35177;45.900;5.946;2022-09-03T08:15:35;7.25;;;2.95;;
49310;SDS011;35177;45.900;5.946;2022-09-03T08:18:01;6.28;;;3.17;;
49310;SDS011;35177;45.900;5.946;2022-09-03T08:20:27;7.70;;;3.08;;
49310;SDS011;35177;45.900;5.946;2022-09-03T08:22:59;3.72;;;2.40;;
49310;SDS011;35177;45.900;5.946;2022-09-03T08:25:28;4.78;;;2.80;;
49310;SDS011;35177;45.900;5.946;2022-09-03T08:27:56;6.97;;;2.63;;
49310;SDS011;35177;45.900;5.946;2022-09-03T08:30:22;3.05;;;2.47;;
49310;SDS011;35177;45.900;5.946;2022-09-03T08:32:49;5.25;;;2.35;;
49310;SDS011;35177;45.900;5.946;2022-09-03T08:35:14;5.30;;;2.40;;
49310;SDS011;35177;45.900;5.946;2022-09-03T08:37:40;3.63;;;2.15;;
49310;SDS011;35177;45.900;5.946;2022-09-03T08:40:06;3.97;;;2.53;;
49310;SDS011;35177;45.900;5.946;2022-09-03T08:42:38;4.00;;;2.10;;
49310;SDS011;35177;45.900;5.946;2022-09-03T08:45:17;3.60;;;2.00;;
49310;SDS011;35177;45.900;5.946;2022-09-03T08:47:49;4.20;;;2.65;;
49310;SDS011;35177;45.900;5.946;2022-09-03T08:55:59;2.55;;;2.33;;
49310;SDS011;35177;45.900;5.946;2022-09-03T08:58:32;6.90;;;2.72;;
49310;SDS011;35177;45.900;5.946;2022-09-03T09:01:01;4.60;;;2.33;;
49310;SDS011;35177;45.900;5.946;2022-09-03T09:21:06;4.32;;;2.72;;
49310;SDS011;35177;45.900;5.946;2022-09-03T09:23:17;5.05;;;2.70;;
49310;SDS011;35177;45.900;5.946;2022-09-03T09:25:48;3.67;;;2.67;;
49310;SDS011;35177;45.900;5.946;2022-09-03T09:28:22;7.22;;;2.67;;
49310;SDS011;35177;45.900;5.946;2022-09-03T09:30:50;6.63;;;2.53;;
49310;SDS011;35177;45.900;5.946;2022-09-03T09:33:18;5.15;;;2.33;;
49310;SDS011;35177;45.900;5.946;2022-09-03T09:35:48;4.20;;;2.67;;
49310;SDS011;35177;45.900;5.946;2022-09-03T09:38:14;7.18;;;4.32;;
49310;SDS011;35177;45.900;5.946;2022-09-03T09:40:41;16.30;;;12.13;;
49310;SDS011;35177;45.900;5.946;2022-09-03T09:43:12;3.17;;;2.67;;
49310;SDS011;35177;45.900;5.946;2022-09-03T09:45:45;18.63;;;12.57;;
49310;SDS011;35177;45.900;5.946;2022-09-03T09:48:25;4.65;;;2.83;;
49310;SDS011;35177;45.900;5.946;2022-09-03T09:51:05;6.47;;;2.55;;
49310;SDS011;35177;45.900;5.946;2022-09-03T09:53:34;6.60;;;2.30;;
49310;SDS011;35177;45.900;5.946;2022-09-03T09:56:00;3.45;;;2.65;;
49310;SDS011;35177;45.900;5.946;2022-09-03T09:58:29;7.10;;;2.78;;
49310;SDS011;35177;45.900;5.946;2022-09-03T10:00:56;3.58;;;2.80;;
49310;SDS011;35177;45.900;5.946;2022-09-03T10:03:26;3.72;;;2.33;;
49310;SDS011;35177;45.900;5.946;2022-09-03T10:06:05;4.72;;;2.95;;
49310;SDS011;35177;45.900;5.946;2022-09-03T10:09:04;5.57;;;2.45;;
49310;SDS011;35177;45.900;5.946;2022-09-03T10:11:33;5.38;;;2.75;;
49310;SDS011;35177;45.900;5.946;2022-09-03T10:14:02;3.58;;;2.65;;
49310;SDS011;35177;45.900;5.946;2022-09-03T10:16:34;3.78;;;2.50;;
49310;SDS011;35177;45.900;5.946;2022-09-03T10:19:04;3.97;;;2.70;;
49310;SDS011;35177;45.900;5.946;2022-09-03T10:21:42;2.65;;;2.42;;
49310;SDS011;35177;45.900;5.946;2022-09-03T10:27:08;3.55;;;2.35;;
49310;SDS011;35177;45.900;5.946;2022-09-03T10:29:36;5.38;;;2.40;;
49310;SDS011;35177;45.900;5.946;2022-09-03T10:35:02;4.60;;;2.30;;
49310;SDS011;35177;45.900;5.946;2022-09-03T10:40:20;2.60;;;2.05;;
49310;SDS011;35177;45.900;5.946;2022-09-03T10:51:08;4.55;;;2.42;;
49310;SDS011;35177;45.900;5.946;2022-09-03T11:05:23;7.63;;;2.50;;
49310;SDS011;35177;45.900;5.946;2022-09-03T11:08:06;4.18;;;2.45;;
49310;SDS011;35177;45.900;5.946;2022-09-03T11:10:36;5.18;;;2.40;;
49310;SDS011;35177;45.900;5.946;2022-09-03T11:15:54;3.70;;;2.58;;
49310;SDS011;35177;45.900;5.946;2022-09-03T11:18:30;5.40;;;2.75;;
49310;SDS011;35177;45.900;5.946;2022-09-03T11:21:04;6.53;;;3.20;;
49310;SDS011;35177;45.900;5.946;2022-09-03T11:23:35;6.03;;;2.78;;
49310;SDS011;35177;45.900;5.946;2022-09-03T11:26:06;7.80;;;2.78;;
49310;SDS011;35177;45.900;5.946;2022-09-03T11:33:40;7.50;;;3.28;;
49310;SDS011;35177;45.900;5.946;2022-09-03T11:36:10;5.20;;;1.90;;
49310;SDS011;35177;45.900;5.946;2022-09-03T11:38:36;5.07;;;2.33;;
49310;SDS011;35177;45.900;5.946;2022-09-03T11:44:09;3.03;;;1.80;;
49310;SDS011;35177;45.900;5.946;2022-09-03T11:46:57;4.05;;;1.60;;
49310;SDS011;35177;45.900;5.946;2022-09-03T11:49:30;3.13;;;1.67;;
49310;SDS011;35177;45.900;5.946;2022-09-03T11:52:03;2.00;;;1.25;;
49310;SDS011;35177;45.900;5.946;2022-09-03T11:54:41;2.42;;;1.63;;
49310;SDS011;35177;45.900;5.946;2022-09-03T11:57:11;1.88;;;1.35;;
49310;SDS011;35177;45.900;5.946;2022-09-03T11:59:39;3.42;;;1.50;;
49310;SDS011;35177;45.900;5.946;2022-09-03T12:15:34;1.70;;;1.60;;
49310;SDS011;35177;45.900;5.946;2022-09-03T12:18:11;1.65;;;1.38;;
49310;SDS011;35177;45.900;5.946;2022-09-03T12:20:43;4.85;;;1.38;;
49310;SDS011;35177;45.900;5.946;2022-09-03T12:23:24;2.08;;;1.30;;
49310;SDS011;35177;45.900;5.946;2022-09-03T12:25:52;1.90;;;1.48;;
49310;SDS011;35177;45.900;5.946;2022-09-03T12:28:19;1.90;;;1.48;;
49310;SDS011;35177;45.900;5.946;2022-09-03T12:30:47;1.52;;;1.27;;
49310;SDS011;35177;45.900;5.946;2022-09-03T12:33:17;2.67;;;1.42;;
49310;SDS011;35177;45.900;5.946;2022-09-03T12:36:08;1.88;;;1.30;;
49310;SDS011;35177;45.900;5.946;2022-09-03T12:38:33;1.98;;;1.50;;
49310;SDS011;35177;45.900;5.946;2022-09-03T12:40:59;2.47;;;1.88;;
49310;SDS011;35177;45.900;5.946;2022-09-03T12:43:28;2.72;;;1.60;;
49310;SDS011;35177;45.900;5.946;2022-09-03T12:45:53;5.00;;;1.80;;
49310;SDS011;35177;45.900;5.946;2022-09-03T12:48:19;4.10;;;1.58;;
49310;SDS011;35177;45.900;5.946;2022-09-03T12:50:46;1.77;;;1.67;;
49310;SDS011;35177;45.900;5.946;2022-09-03T12:53:19;2.05;;;1.67;;
49310;SDS011;35177;45.900;5.946;2022-09-03T12:55:49;7.40;;;1.90;;
49310;SDS011;35177;45.900;5.946;2022-09-03T13:00:51;4.45;;;1.65;;
49310;SDS011;35177;45.900;5.946;2022-09-03T13:03:23;3.22;;;2.30;;
49310;SDS011;35177;45.900;5.946;2022-09-03T13:09:12;2.20;;;1.60;;
49310;SDS011;35177;45.900;5.946;2022-09-03T13:11:39;1.92;;;1.63;;
49310;SDS011;35177;45.900;5.946;2022-09-03T13:14:12;2.90;;;1.90;;
49310;SDS011;35177;45.900;5.946;2022-09-03T13:22:17;3.88;;;2.15;;
49310;SDS011;35177;45.900;5.946;2022-09-03T13:33:46;1.90;;;1.50;;
49310;SDS011;35177;45.900;5.946;2022-09-03T13:39:32;6.32;;;1.95;;
49310;SDS011;35177;45.900;5.946;2022-09-03T13:42:08;2.88;;;1.70;;
49310;SDS011;35177;45.900;5.946;2022-09-03T13:44:50;3.03;;;1.90;;
49310;SDS011;35177;45.900;5.946;2022-09-03T13:50:30;5.18;;;2.00;;
49310;SDS011;35177;45.900;5.946;2022-09-03T13:53:07;2.35;;;1.73;;
49310;SDS011;35177;45.900;5.946;2022-09-03T13:55:48;2.75;;;1.52;;
49310;SDS011;35177;45.900;5.946;2022-09-03T13:58:20;2.83;;;1.80;;
49310;SDS011;35177;45.900;5.946;2022-09-03T14:03:31;2.55;;;1.65;;
49310;SDS011;35177;45.900;5.946;2022-09-03T14:14:36;1.80;;;1.70;;
49310;SDS011;35177;45.900;5.946;2022-09-03T14:22:52;8.13;;;1.48;;
49310;SDS011;35177;45.900;5.946;2022-09-03T14:25:26;4.05;;;1.83;;
49310;SDS011;35177;45.900;5.946;2022-09-03T14:28:11;3.90;;;1.67;;
49310;SDS011;35177;45.900;5.946;2022-09-03T14:30:55;3.13;;;1.70;;
49310;SDS011;35177;45.900;5.946;2022-09-03T14:36:54;3.35;;;1.95;;
49310;SDS011;35177;45.900;5.946;2022-09-03T14:39:43;7.25;;;1.70;;
49310;SDS011;35177;45.900;5.946;2022-09-03T14:45:27;3.05;;;1.73;;
49310;SDS011;35177;45.900;5.946;2022-09-03T14:58:47;6.68;;;2.08;;
49310;SDS011;35177;45.900;5.946;2022-09-03T15:04:01;4.10;;;2.00;;
49310;SDS011;35177;45.900;5.946;2022-09-03T15:10:04;2.83;;;1.95;;
49310;SDS011;35177;45.900;5.946;2022-09-03T15:29:28;4.50;;;2.13;;
49310;SDS011;35177;45.900;5.946;2022-09-03T15:34:53;3.25;;;2.50;;
49310;SDS011;35177;45.900;5.946;2022-09-03T15:45:54;4.90;;;2.60;;
49310;SDS011;35177;45.900;5.946;2022-09-03T15:48:35;6.00;;;2.38;;
49310;SDS011;35177;45.900;5.946;2022-09-03T16:02:19;3.10;;;1.45;;
49310;SDS011;35177;45.900;5.946;2022-09-03T16:05:04;1.50;;;0.90;;
49310;SDS011;35177;45.900;5.946;2022-09-03T16:07:53;1.35;;;0.90;;
49310;SDS011;35177;45.900;5.946;2022-09-03T16:11:15;2.30;;;1.00;;
49310;SDS011;35177;45.900;5.946;2022-09-03T16:13:39;3.17;;;0.98;;
49310;SDS011;35177;45.900;5.946;2022-09-03T16:16:25;0.70;;;0.70;;
49310;SDS011;35177;45.900;5.946;2022-09-03T16:22:11;1.60;;;0.75;;
49310;SDS011;35177;45.900;5.946;2022-09-03T16:24:49;0.70;;;0.68;;
49310;SDS011;35177;45.900;5.946;2022-09-03T16:27:24;0.95;;;0.90;;
49310;SDS011;35177;45.900;5.946;2022-09-03T16:30:12;1.05;;;0.90;;
49310;SDS011;35177;45.900;5.946;2022-09-03T16:32:51;0.88;;;0.70;;
49310;SDS011;35177;45.900;5.946;2022-09-03T16:41:35;0.85;;;0.85;;
49310;SDS011;35177;45.900;5.946;2022-09-03T16:47:06;0.80;;;0.80;;
49310;SDS011;35177;45.900;5.946;2022-09-03T16:59:58;3.95;;;0.98;;
49310;SDS011;35177;45.900;5.946;2022-09-03T17:14:11;3.58;;;1.00;;
49310;SDS011;35177;45.900;5.946;2022-09-03T17:16:50;1.70;;;0.93;;
49310;SDS011;35177;45.900;5.946;2022-09-03T17:19:32;4.40;;;1.17;;
49310;SDS011;35177;45.900;5.946;2022-09-03T17:24:55;1.25;;;1.08;;
49310;SDS011;35177;45.900;5.946;2022-09-03T17:27:42;2.35;;;0.90;;
49310;SDS011;35177;45.900;5.946;2022-09-03T17:30:20;2.55;;;1.00;;
49310;SDS011;35177;45.900;5.946;2022-09-03T17:49:30;8.27;;;1.70;;
49310;SDS011;35177;45.900;5.946;2022-09-03T17:52:07;2.42;;;1.17;;
49310;SDS011;35177;45.900;5.946;2022-09-03T17:54:52;1.63;;;1.08;;
49310;SDS011;35177;45.900;5.946;2022-09-03T17:57:31;2.42;;;1.10;;
49310;SDS011;35177;45.900;5.946;2022-09-03T18:00:11;2.35;;;1.67;;
49310;SDS011;35177;45.900;5.946;2022-09-03T18:02:55;1.63;;;1.20;;
49310;SDS011;35177;45.900;5.946;2022-09-03T18:10:48;1.20;;;1.10;;
49310;SDS011;35177;45.900;5.946;2022-09-03T18:16:23;2.57;;;1.10;;
49310;SDS011;35177;45.900;5.946;2022-09-03T18:18:52;3.08;;;1.48;;
49310;SDS011;35177;45.900;5.946;2022-09-03T18:21:25;3.55;;;1.60;;
49310;SDS011;35177;45.900;5.946;2022-09-03T18:24:28;1.50;;;1.40;;
49310;SDS011;35177;45.900;5.946;2022-09-03T18:30:46;1.88;;;1.48;;
49310;SDS011;35177;45.900;5.946;2022-09-03T18:33:30;6.18;;;1.25;;
49310;SDS011;35177;45.900;5.946;2022-09-03T18:36:14;5.20;;;1.40;;
49310;SDS011;35177;45.900;5.946;2022-09-03T18:50:52;2.78;;;1.70;;
49310;SDS011;35177;45.900;5.946;2022-09-03T18:56:45;6.88;;;2.00;;
49310;SDS011;35177;45.900;5.946;2022-09-03T19:21:30;4.50;;;1.92;;
49310;SDS011;35177;45.900;5.946;2022-09-03T19:24:14;2.38;;;1.80;;
49310;SDS011;35177;45.900;5.946;2022-09-03T19:35:58;6.75;;;1.85;;
49310;SDS011;35177;45.900;5.946;2022-09-03T19:39:11;4.28;;;2.08;;
49310;SDS011;35177;45.900;5.946;2022-09-03T19:42:25;2.90;;;1.95;;
49310;SDS011;35177;45.900;5.946;2022-09-03T19:45:38;6.43;;;2.33;;
49310;SDS011;35177;45.900;5.946;2022-09-03T19:48:40;4.90;;;2.17;;
49310;SDS011;35177;45.900;5.946;2022-09-03T19:51:34;4.03;;;2.15;;
49310;SDS011;35177;45.900;5.946;2022-09-03T19:54:40;5.60;;;2.13;;
49310;SDS011;35177;45.900;5.946;2022-09-03T19:57:24;5.93;;;2.22;;
49310;SDS011;35177;45.900;5.946;2022-09-03T20:00:10;3.20;;;2.60;;
49310;SDS011;35177;45.900;5.946;2022-09-03T20:05:39;7.03;;;2.15;;
49310;SDS011;35177;45.900;5.946;2022-09-03T20:08:24;6.07;;;2.03;;
49310;SDS011;35177;45.900;5.946;2022-09-03T20:11:10;3.95;;;2.05;;
49310;SDS011;35177;45.900;5.946;2022-09-03T20:13:43;3.28;;;2.10;;
49310;SDS011;35177;45.900;5.946;2022-09-03T20:16:38;3.15;;;1.98;;
49310;SDS011;35177;45.900;5.946;2022-09-03T20:30:07;7.13;;;2.50;;
49310;SDS011;35177;45.900;5.946;2022-09-03T20:43:58;7.43;;;2.17;;
49310;SDS011;35177;45.900;5.946;2022-09-03T20:46:36;3.47;;;2.15;;
49310;SDS011;35177;45.900;5.946;2022-09-03T20:55:04;5.32;;;2.63;;
49310;SDS011;35177;45.900;5.946;2022-09-03T20:57:41;8.70;;;2.13;;
49310;SDS011;35177;45.900;5.946;2022-09-03T21:00:17;6.45;;;1.90;;
49310;SDS011;35177;45.900;5.946;2022-09-03T21:05:22;5.30;;;2.08;;
49310;SDS011;35177;45.900;5.946;2022-09-03T21:08:19;5.80;;;2.30;;
49310;SDS011;35177;45.900;5.946;2022-09-03T21:11:04;3.28;;;1.85;;
49310;SDS011;35177;45.900;5.946;2022-09-03T21:17:04;5.88;;;2.70;;
49310;SDS011;35177;45.900;5.946;2022-09-03T21:25:21;5.57;;;2.63;;
49310;SDS011;35177;45.900;5.946;2022-09-03T21:27:53;6.60;;;2.97;;
49310;SDS011;35177;45.900;5.946;2022-09-03T21:30:23;2.03;;;1.70;;
49310;SDS011;35177;45.900;5.946;2022-09-03T21:38:01;1.13;;;1.02;;
49310;SDS011;35177;45.900;5.946;2022-09-03T21:40:28;2.10;;;0.90;;
49310;SDS011;35177;45.900;5.946;2022-09-03T21:43:10;2.60;;;0.82;;
49310;SDS011;35177;45.900;5.946;2022-09-03T21:45:52;1.33;;;0.70;;
49310;SDS011;35177;45.900;5.946;2022-09-03T21:59:25;1.20;;;0.70;;
49310;SDS011;35177;45.900;5.946;2022-09-03T22:04:48;0.70;;;0.70;;
49310;SDS011;35177;45.900;5.946;2022-09-03T22:15:21;1.50;;;0.63;;
49310;SDS011;35177;45.900;5.946;2022-09-03T22:20:25;1.83;;;0.73;;
49310;SDS011;35177;45.900;5.946;2022-09-03T22:22:56;1.00;;;0.63;;
49310;SDS011;35177;45.900;5.946;2022-09-03T22:30:59;2.10;;;0.75;;
49310;SDS011;35177;45.900;5.946;2022-09-03T22:36:14;1.92;;;0.85;;
49310;SDS011;35177;45.900;5.946;2022-09-03T22:41:26;1.02;;;0.80;;
49310;SDS011;35177;45.900;5.946;2022-09-03T22:47:12;1.40;;;0.65;;
49310;SDS011;35177;45.900;5.946;2022-09-03T22:49:53;1.13;;;0.70;;
49310;SDS011;35177;45.900;5.946;2022-09-03T22:55:15;0.90;;;0.80;;
49310;SDS011;35177;45.900;5.946;2022-09-03T23:00:43;0.98;;;0.80;;
49310;SDS011;35177;45.900;5.946;2022-09-03T23:03:18;1.23;;;0.90;;
49310;SDS011;35177;45.900;5.946;2022-09-03T23:05:50;1.45;;;0.82;;
49310;SDS011;35177;45.900;5.946;2022-09-03T23:08:21;2.53;;;1.05;;
49310;SDS011;35177;45.900;5.946;2022-09-03T23:13:48;0.77;;;0.77;;
49310;SDS011;35177;45.900;5.946;2022-09-03T23:16:32;1.20;;;0.80;;
49310;SDS011;35177;45.900;5.946;2022-09-03T23:19:07;2.25;;;1.02;;
49310;SDS011;35177;45.900;5.946;2022-09-03T23:21:42;3.45;;;1.00;;
49310;SDS011;35177;45.900;5.946;2022-09-03T23:24:34;1.63;;;1.13;;
49310;SDS011;35177;45.900;5.946;2022-09-03T23:27:05;3.45;;;1.15;;
49310;SDS011;35177;45.900;5.946;2022-09-03T23:29:41;1.98;;;0.85;;
49310;SDS011;35177;45.900;5.946;2022-09-03T23:32:11;1.48;;;0.95;;
49310;SDS011;35177;45.900;5.946;2022-09-03T23:34:36;2.45;;;1.10;;
49310;SDS011;35177;45.900;5.946;2022-09-03T23:40:25;3.00;;;1.10;;
49310;SDS011;35177;45.900;5.946;2022-09-03T23:46:00;3.22;;;1.00;;
49310;SDS011;35177;45.900;5.946;2022-09-03T23:54:47;3.85;;;1.30;;
